Latest Coastal Weather Observations for Dum In Mirrie

IDD60701

Issued at 6:31 pm CST Saturday 25 February 2017 (issued every 10 minutes, with the page automatically refreshed every 10 minutes)

About coastal observations | Map of coastal stations | Coastal observations for NT | Marine services | Other Formats
Station Details ID: 014277 Name: DUM IN MIRRIE AIRSTRIP Lat: -12.63 Lon: 130.37 Height: 3.5 m
Data from the previous 72 hours. | See also: Recent months at Dum In Mirrie
Date/Time
CST
Temp
°C
Wind Pressure Rain since
9am
mm
Weather Cloud Vis
km
Sea
Height
m
Swell
Dir  Spd
kts
Gust
kts
hPa Trend Height
m
Period
s
Dir
25/06:30pm 29.4 W 2 4 1007.2 - 2.8 - - - - - - -
25/06:00pm 29.4 WNW 1 4 1007.0 - 2.8 - - - - - - -
25/05:30pm 29.5 W 1 3 1007.2 - 2.8 - - - - - - -
25/05:00pm 29.6 W 2 3 1007.2 - 2.8 - - - - - - -
25/04:30pm 28.8 NW 2 3 1007.4 - 2.8 - - - - - - -
25/04:00pm 27.3 NNW 2 3 1007.8 - 2.8 - - - - - - -
25/03:30pm 25.7 NNE 4 7 1008.2 - 2.8 - - - - - - -
25/03:00pm 26.6 E 11 18 1009.0 - 0.0 - - - - - - -
25/02:56pm 27.0 E 8 17 1009.1 - 0.0 - - - - - - -
25/02:30pm 32.0 W 5 8 1008.6 - 0.0 - - - - - - -
25/02:00pm 32.2 W 4 7 1008.8 - 0.0 - - - - - - -
25/01:30pm 31.9 W 5 7 1009.1 - 0.0 - - - - - - -
25/01:00pm 31.3 WNW 4 7 1009.6 - 0.0 - - - - - - -
25/12:30pm 31.4 WNW 4 6 1010.0 - 0.0 - - - - - - -
25/12:00pm 30.9 NW 3 5 1010.6 - 0.0 - - - - - - -
25/11:30am 28.9 NW 3 7 1011.2 - 0.0 - - - - - - -
25/11:00am 30.1 WSW 2 3 1011.3 - 0.0 - - - - - - -
25/10:30am 30.5 S 1 3 1011.5 - 0.0 - - - - - - -
25/10:00am 29.9 CALM 0 2 1011.4 - 0.0 - - - - - - -
25/09:30am 29.7 WSW 1 2 1011.4 - 0.0 - - - - - - -
25/09:00am 29.9 WNW 2 3 1011.2 - 0.0 - - - - - - -
25/08:30am 29.0 CALM 0 0 1010.9 - 0.0 - - - - - - -
25/08:00am 28.3 CALM 0 0 1010.8 - 0.0 - - - - - - -
25/07:30am 26.3 CALM 0 0 1010.6 - 0.0 - - - - - - -
25/07:00am 25.8 CALM 0 0 1010.3 - 0.0 - - - - - - -
25/06:30am 25.7 CALM 0 0 1009.9 - 0.0 - - - - - - -
25/06:00am 25.3 CALM 0 0 1009.4 - 0.0 - - - - - - -
25/05:30am 25.6 CALM 0 0 1009.2 - 0.0 - - - - - - -
25/05:00am 25.8 CALM 0 0 1008.8 - 0.0 - - - - - - -
25/04:30am 26.5 CALM 0 0 1008.5 - 0.0 - - - - - - -
25/04:00am 27.5 NNW 1 2 1008.4 - 0.0 - - - - - - -
25/03:30am 27.8 NNW 2 5 1008.4 - 0.0 - - - - - - -
25/03:00am 27.6 NNW 2 5 1008.5 - 0.0 - - - - - - -
25/02:30am 27.7 NNW 2 4 1009.0 - 0.0 - - - - - - -
25/02:00am 27.8 NNW 3 5 1009.4 - 0.0 - - - - - - -
25/01:30am 27.6 NNW 2 4 1009.6 - 0.0 - - - - - - -
25/01:00am 27.9 NNW 2 3 1010.1 - 0.0 - - - - - - -
25/12:30am 28.1 NNW 2 4 1010.2 - 0.0 - - - - - - -
25/12:00am 28.2 NNW 2 3 1010.4 - 0.0 - - - - - - -
 
Date/Time
CST
Temp
°C
Wind Pressure Rain since
9am
mm
Weather Cloud Vis
km
Sea
Height
m
Swell
Dir  Spd
kts
Gust
kts
hPa Trend Height
m
Period
s
Dir
24/11:30pm 28.5 NNW 2 4 1010.4 - 0.0 - - - - - - -
24/11:00pm 28.7 NNW 3 6 1010.2 - 0.0 - - - - - - -
24/10:30pm 28.8 NNW 3 7 1010.0 - 0.0 - - - - - - -
24/10:00pm 28.7 NNW 4 8 1009.8 - 0.0 - - - - - - -
24/09:30pm 28.6 NNW 2 6 1009.5 - 0.0 - - - - - - -
24/09:00pm 28.7 NNW 3 5 1009.3 - 0.0 - - - - - - -
24/08:30pm 28.7 NNW 3 5 1009.3 - 0.0 - - - - - - -
24/08:00pm 28.8 NNW 3 6 1008.9 - 0.0 - - - - - - -
24/07:30pm 29.0 NNW 3 6 1009.0 - 0.0 - - - - - - -
24/07:00pm 29.5 NNW 3 6 1008.8 - 0.0 - - - - - - -
24/06:30pm 30.1 NNW 4 8 1008.4 - 0.0 - - - - - - -
24/06:00pm 30.6 NW 3 7 1008.2 - 0.0 - - - - - - -
24/05:30pm 31.1 NW 5 9 1007.9 - 0.0 - - - - - - -
24/05:00pm 30.9 WNW 4 7 1007.9 - 0.0 - - - - - - -
24/04:30pm 31.3 WNW 4 6 1008.0 - 0.0 - - - - - - -
24/04:00pm 31.7 WNW 5 8 1008.1 - 0.0 - - - - - - -
24/03:30pm 31.7 WNW 5 9 1008.0 - 0.0 - - - - - - -
24/03:00pm 31.6 WNW 5 9 1008.2 - 0.0 - - - - - - -
24/02:30pm 31.6 WNW 4 7 1008.5 - 0.0 - - - - - - -
24/02:00pm 31.5 WNW 5 9 1008.9 - 0.0 - - - - - - -
24/01:30pm 31.7 WNW 5 7 1009.3 - 0.0 - - - - - - -
24/01:00pm 31.7 NW 5 8 1009.6 - 0.0 - - - - - - -
24/12:30pm 31.1 WNW 4 7 1010.3 - 0.0 - - - - - - -
24/12:00pm 31.6 W 3 5 1010.8 - 0.0 - - - - - - -
24/11:30am 30.7 WNW 3 4 1011.1 - 0.0 - - - - - - -
24/11:00am 30.9 W 2 4 1011.2 - 0.0 - - - - - - -
24/10:30am 30.3 W 3 5 1011.2 - 0.0 - - - - - - -
24/10:00am 30.0 W 3 5 1011.0 - 0.0 - - - - - - -
24/09:30am 30.1 WNW 4 7 1010.8 - 0.0 - - - - - - -
24/09:00am 30.1 W 4 6 1010.7 - 0.0 - - - - - - -
24/08:30am 29.4 W 3 5 1010.7 - 0.0 - - - - - - -
24/08:00am 29.0 W 3 6 1010.4 - 0.0 - - - - - - -
24/07:30am 28.8 W 3 6 1010.1 - 0.0 - - - - - - -
24/07:00am 28.6 WNW 4 8 1009.7 - 0.0 - - - - - - -
24/06:30am 28.5 NW 3 7 1009.5 - 0.0 - - - - - - -
24/06:00am 28.6 NW 5 9 1008.7 - 0.0 - - - - - - -
24/05:30am 28.6 NW 5 9 1008.6 - 0.0 - - - - - - -
24/05:00am 28.6 NW 3 7 1008.5 - 0.0 - - - - - - -
24/04:30am 28.7 WNW 4 8 1008.4 - 0.0 - - - - - - -
24/04:00am 28.7 WNW 5 9 1007.9 - 0.0 - - - - - - -
24/03:30am 28.9 NW 5 8 1008.1 - 0.0 - - - - - - -
24/03:00am 28.9 NW 5 9 1008.2 - 0.0 - - - - - - -
24/02:30am 29.1 NW 5 9 1008.3 - 0.0 - - - - - - -
24/02:00am 29.2 NW 5 9 1008.2 - 0.0 - - - - - - -
24/01:30am 29.1 WNW 5 10 1008.4 - 0.0 - - - - - - -
24/01:00am 29.2 NW 5 8 1008.8 - 0.0 - - - - - - -
24/12:30am 29.2 WNW 4 9 1009.0 - 0.0 - - - - - - -
24/12:00am 29.2 WNW 4 8 1009.3 - 0.0 - - - - - - -
 
Date/Time
CST
Temp
°C
Wind Pressure Rain since
9am
mm
Weather Cloud Vis
km
Sea
Height
m
Swell
Dir  Spd
kts
Gust
kts
hPa Trend Height
m
Period
s
Dir
23/11:30pm 29.4 WNW 5 8 1009.4 - 0.0 - - - - - - -
23/11:00pm 29.4 W 5 9 1009.2 - 0.0 - - - - - - -
23/10:30pm 29.4 W 4 8 1008.9 - 0.0 - - - - - - -
23/10:00pm 29.5 W 4 7 1008.8 - 0.0 - - - - - - -
23/09:30pm 29.5 W 4 7 1008.5 - 0.0 - - - - - - -
23/09:00pm 29.7 W 4 8 1008.2 - 0.0 - - - - - - -
23/08:30pm 29.9 W 5 8 1007.9 - 0.0 - - - - - - -
23/08:00pm 30.1 W 5 8 1007.5 - 0.0 - - - - - - -
23/07:30pm 30.1 W 7 10 1007.2 - 0.0 - - - - - - -
23/07:00pm 30.2 WSW 5 11 1006.8 - 0.0 - - - - - - -
23/06:30pm 31.0 WSW 5 11 1006.6 - 0.0 - - - - - - -
23/06:00pm 31.2 W 8 13 1006.3 - 0.0 - - - - - - -
23/05:30pm 31.3 W 10 14 1006.2 - 0.0 - - - - - - -
23/05:00pm 31.4 W 10 14 1006.1 - 0.0 - - - - - - -
23/04:30pm 31.3 W 9 13 1006.1 - 0.0 - - - - - - -
23/04:00pm 31.5 W 8 13 1006.1 - 0.0 - - - - - - -
23/03:30pm 31.7 WSW 6 12 1006.2 - 0.0 - - - - - - -
23/03:00pm 32.1 WSW 4 7 1006.3 - 0.0 - - - - - - -
23/02:30pm 31.8 WSW 5 10 1006.7 - 0.0 - - - - - - -
23/02:00pm 31.2 WSW 7 11 1007.1 - 0.0 - - - - - - -
23/01:30pm 31.1 WSW 7 10 1007.6 - 0.0 - - - - - - -
23/01:00pm 31.0 W 7 11 1008.0 - 0.0 - - - - - - -
23/12:30pm 31.0 WSW 7 11 1008.6 - 0.0 - - - - - - -
23/12:00pm 31.2 WSW 5 9 1009.0 - 0.0 - - - - - - -
23/11:30am 31.1 WSW 4 8 1009.4 - 0.0 - - - - - - -
23/11:00am 31.1 SW 5 8 1009.7 - 0.0 - - - - - - -
23/10:30am 31.0 SW 5 8 1009.8 - 0.0 - - - - - - -
23/10:00am 30.4 SW 5 10 1010.1 - 0.0 - - - - - - -
23/09:30am 30.1 SW 5 10 1010.2 - 0.0 - - - - - - -
23/09:00am 29.6 WSW 5 8 1009.8 - 0.0 - - - - - - -
23/08:30am 29.6 WSW 3 6 1009.5 - 0.0 - - - - - - -
23/08:00am 29.2 SW 1 3 1009.3 - 0.0 - - - - - - -
23/07:30am 28.6 WSW 2 3 1009.1 - 0.0 - - - - - - -
23/07:00am 27.9 WSW 1 4 1008.9 - 0.0 - - - - - - -
23/06:30am 28.0 SW 2 4 1008.8 - 0.0 - - - - - - -
23/06:00am 28.2 CALM 0 3 1008.6 - 0.0 - - - - - - -
23/05:30am 28.5 WSW 4 10 1008.4 - 0.0 - - - - - - -
23/05:00am 28.4 WSW 2 6 1008.3 - 0.0 - - - - - - -
23/04:30am 28.3 WSW 1 4 1008.2 - 0.0 - - - - - - -
23/04:00am 28.4 WSW 2 5 1008.1 - 0.0 - - - - - - -
23/03:30am 28.4 SW 2 4 1007.9 - 0.0 - - - - - - -
23/03:00am 28.5 WSW 1 3 1007.7 - 0.0 - - - - - - -
23/02:30am 28.5 SW 2 4 1007.8 - 0.0 - - - - - - -
23/02:00am 28.4 WSW 2 5 1008.3 - 0.0 - - - - - - -
23/01:30am 28.5 SW 2 6 1008.9 - 0.0 - - - - - - -
23/01:00am 28.7 SW 2 4 1009.3 - 0.0 - - - - - - -
23/12:30am 28.8 WSW 2 7 1009.8 - 0.0 - - - - - - -
23/12:00am 28.9 WSW 3 8 1010.2 - 0.0 - - - - - - -
 
Date/Time
CST
Temp
°C
Wind Pressure Rain since
9am
mm
Weather Cloud Vis
km
Sea
Height
m
Swell
Dir  Spd
kts
Gust
kts
hPa Trend Height
m
Period
s
Dir
22/11:30pm 28.9 WSW 2 6 1010.4 - 0.0 - - - - - - -
22/11:00pm 28.9 WSW 3 5 1010.4 - 0.0 - - - - - - -
22/10:30pm 29.1 WSW 5 10 1010.0 - 0.0 - - - - - - -
22/10:00pm 29.2 WSW 6 10 1010.0 - 0.0 - - - - - - -
22/09:30pm 29.3 WSW 4 10 1009.8 - 0.0 - - - - - - -
22/09:00pm 29.2 WSW 4 11 1009.4 - 0.0 - - - - - - -
22/08:30pm 29.2 SW 3 8 1009.3 - 0.0 - - - - - - -
22/08:00pm 29.3 WSW 4 9 1009.0 - 0.0 - - - - - - -
22/07:30pm 29.2 WSW 3 7 1008.7 - 0.0 - - - - - - -
22/07:00pm 29.5 WSW 5 11 1008.5 - 0.0 - - - - - - -

Other Formats:

Comma delimited format used in spreadsheet applications
http://www.bom.gov.au/fwo/IDD60701/IDD60701.94116.axf

JavaScript Object Notation format (JSON) in row-major order
http://www.bom.gov.au/fwo/IDD60701/IDD60701.94116.json